Time;durP1;ratioP1;P1;durP2;ratioP2;P2;SDS_P1;SDS_P2;PMS_P1;PMS_P2;Temp;Humidity;BMP_temperature;BMP_pressure;BME280_temperature;BME280_humidity;BME280_pressure;Samples;Min_cycle;Max_cycle;Signal;HPM_P1;HPM_P2
2023/02/17 00:01:28;;;;;;;104.60;49.57;;;;;;;1.44;89.98;101183.88;1469961;89;22422;-78
2023/02/17 00:03:54;;;;;;;79.70;47.00;;;;;;;1.39;90.31;101180.65;1470165;89;21668;-77
2023/02/17 00:06:23;;;;;;;88.00;47.10;;;;;;;1.34;91.14;101176.47;1470192;88;22573;-78
2023/02/17 00:08:50;;;;;;;80.37;48.17;;;;;;;1.31;91.37;101180.53;1472154;89;23174;-78
2023/02/17 00:11:17;;;;;;;84.87;46.23;;;;;;;1.29;91.94;101183.66;1467761;89;21737;-78
2023/02/17 00:13:43;;;;;;;81.37;48.33;;;;;;;1.27;92.52;101189.42;1458988;89;21691;-78
2023/02/17 00:16:17;;;;;;;83.97;48.93;;;;;;;1.26;92.72;101196.83;1471213;89;21619;-78
2023/02/17 00:18:43;;;;;;;80.10;44.50;;;;;;;1.25;93.11;101197.77;1467145;89;22498;-78
2023/02/17 00:21:19;;;;;;;84.47;49.60;;;;;;;1.24;91.73;101199.99;1469443;88;21728;-79
2023/02/17 00:23:47;;;;;;;79.43;45.23;;;;;;;1.22;91.32;101197.91;1474292;89;21678;-76
2023/02/17 00:26:15;;;;;;;87.47;49.37;;;;;;;1.21;91.19;101202.73;1471007;89;21483;-77
2023/02/17 00:28:41;;;;;;;79.73;46.70;;;;;;;1.21;91.15;101198.83;1468707;88;21559;-76
2023/02/17 00:31:17;;;;;;;84.07;48.60;;;;;;;1.18;92.31;101200.27;1465667;89;21640;-78
2023/02/17 00:33:44;;;;;;;86.87;48.93;;;;;;;1.13;91.95;101198.32;1469829;89;21662;-77
2023/02/17 00:36:16;;;;;;;78.10;48.43;;;;;;;1.08;92.01;101188.55;1470873;88;21786;-78
2023/02/17 00:38:43;;;;;;;90.17;46.87;;;;;;;1.05;91.83;101193.44;1466577;89;21772;-78
2023/02/17 00:41:09;;;;;;;90.33;49.17;;;;;;;1.02;91.72;101185.75;1463428;89;21549;-77
2023/02/17 00:43:35;;;;;;;84.20;49.73;;;;;;;0.98;91.72;101187.25;1469934;88;22650;-78
2023/02/17 00:46:02;;;;;;;78.47;46.60;;;;;;;0.95;91.45;101193.47;1468907;89;21477;-77
2023/02/17 00:48:30;;;;;;;83.27;47.97;;;;;;;0.89;92.17;101191.97;1471879;89;21846;-77
2023/02/17 00:50:56;;;;;;;84.60;48.13;;;;;;;0.84;92.33;101180.89;1473143;88;21595;-76
2023/02/17 00:53:23;;;;;;;84.10;48.10;;;;;;;0.82;91.85;101184.02;1471531;89;21744;-77
2023/02/17 00:55:49;;;;;;;84.73;47.47;;;;;;;0.76;92.83;101181.69;1463805;89;22654;-78
2023/02/17 00:58:16;;;;;;;80.70;46.93;;;;;;;0.73;92.46;101176.61;1468221;89;21630;-77
2023/02/17 01:00:42;;;;;;;81.20;47.93;;;;;;;0.72;92.45;101177.53;1461032;88;21589;-75
2023/02/17 01:03:09;;;;;;;81.57;44.67;;;;;;;0.72;92.26;101178.83;1476491;88;22095;-78
2023/02/17 01:05:42;;;;;;;88.83;49.53;;;;;;;0.72;92.85;101174.05;1472957;89;21662;-77
2023/02/17 01:08:09;;;;;;;85.80;47.87;;;;;;;0.71;92.79;101176.28;1462037;89;21490;-77
2023/02/17 01:10:39;;;;;;;77.77;44.83;;;;;;;0.68;92.73;101174.65;1463063;89;21810;-77
2023/02/17 01:13:06;;;;;;;87.30;47.57;;;;;;;0.64;92.51;101175.24;1465666;89;21678;-77
2023/02/17 01:15:51;;;;;;;80.27;46.10;;;;;;;0.61;92.29;101179.75;1463184;88;22560;-78
2023/02/17 01:18:21;;;;;;;84.67;49.13;;;;;;;0.56;92.18;101179.09;1478120;88;22561;-77
2023/02/17 01:20:47;;;;;;;87.23;46.97;;;;;;;0.48;92.78;101181.17;1465267;88;22324;-78
2023/02/17 01:23:15;;;;;;;83.73;48.07;;;;;;;0.41;92.30;101177.52;1463352;89;22670;-78
2023/02/17 01:25:45;;;;;;;81.70;46.27;;;;;;;0.39;91.58;101173.28;1463837;89;21762;-78
2023/02/17 01:28:19;;;;;;;73.40;43.80;;;;;;;0.37;91.46;101172.03;1459208;89;21573;-77
2023/02/17 01:30:50;;;;;;;88.13;49.47;;;;;;;0.36;91.53;101166.44;1467866;89;21675;-78
2023/02/17 01:33:15;;;;;;;86.10;47.73;;;;;;;0.33;91.61;101162.66;1464888;89;22021;-77
2023/02/17 01:35:41;;;;;;;83.82;49.88;;;;;;;0.32;91.78;101166.66;1464470;89;22515;-78
2023/02/17 01:38:08;;;;;;;90.67;51.13;;;;;;;0.30;91.88;101160.20;1473862;88;21506;-78
2023/02/17 01:40:34;;;;;;;82.50;47.03;;;;;;;0.28;91.63;101162.00;1466484;89;22514;-78
2023/02/17 01:43:01;;;;;;;76.37;43.10;;;;;;;0.25;92.83;101163.44;1462437;89;21312;-78
2023/02/17 01:45:45;;;;;;;82.53;46.35;;;;;;;0.19;92.72;101163.70;1462089;89;21401;-77
2023/02/17 01:48:16;;;;;;;85.25;49.23;;;;;;;0.10;92.28;101167.52;1468814;89;21431;-78
2023/02/17 01:51:04;;;;;;;87.53;50.30;;;;;;;0.01;91.60;101161.39;1473808;88;21402;-78
2023/02/17 01:53:41;;;;;;;89.40;50.52;;;;;;;-0.12;92.98;101162.33;1463038;89;21379;-78
2023/02/17 01:56:09;;;;;;;76.77;44.83;;;;;;;-0.24;93.78;101154.56;1463794;89;21431;-76
2023/02/17 01:58:40;;;;;;;91.72;49.45;;;;;;;-0.28;93.20;101156.06;1470963;88;21535;-78
2023/02/17 02:01:07;;;;;;;87.22;48.95;;;;;;;-0.32;93.87;101155.77;1468519;89;21373;-77
2023/02/17 02:03:35;;;;;;;84.62;46.53;;;;;;;-0.31;93.58;101157.48;1476039;88;21527;-77
2023/02/17 02:06:08;;;;;;;86.05;48.92;;;;;;;-0.38;94.22;101162.05;1467903;89;22606;-77
2023/02/17 02:08:48;;;;;;;84.83;48.05;;;;;;;-0.46;94.39;101161.53;1466998;89;21388;-78
2023/02/17 02:11:15;;;;;;;80.30;45.63;;;;;;;-0.53;94.45;101162.20;1469021;89;21445;-78
2023/02/17 02:13:41;;;;;;;85.42;49.53;;;;;;;-0.58;94.82;101175.82;1463456;88;21423;-78
2023/02/17 02:16:19;;;;;;;86.30;47.58;;;;;;;-0.61;94.19;101165.54;1473307;89;21549;-77
2023/02/17 02:19:00;;;;;;;80.32;44.75;;;;;;;-0.63;93.63;101159.58;1465506;89;21476;-77
2023/02/17 02:22:12;;;;;;;86.17;48.05;;;;;;;-0.63;93.08;101143.10;1469663;89;21898;-78
2023/02/17 02:25:08;;;;;;;78.52;44.98;;;;;;;-0.66;92.89;101143.22;1463801;89;21401;-77
2023/02/17 02:28:09;;;;;;;90.05;45.70;;;;;;;-0.78;93.54;101149.73;1473104;89;21462;-77
2023/02/17 02:30:46;;;;;;;81.05;46.25;;;;;;;-0.85;93.51;101150.42;1477105;89;22238;-77
2023/02/17 02:33:23;;;;;;;78.10;44.20;;;;;;;-0.91;93.40;101142.40;1459326;89;21417;-77
2023/02/17 02:36:27;;;;;;;83.40;46.58;;;;;;;-0.93;94.53;101150.70;1469027;88;22488;-77
2023/02/17 02:39:11;;;;;;;91.40;48.58;;;;;;;-0.97;94.21;101151.73;1466748;88;21579;-77
2023/02/17 02:41:45;;;;;;;84.30;45.23;;;;;;;-0.97;93.39;101142.63;1468763;88;21560;-78
2023/02/17 02:44:16;;;;;;;88.80;48.42;;;;;;;-0.99;93.64;101137.09;1470071;89;21942;-77
2023/02/17 02:46:42;;;;;;;82.10;47.55;;;;;;;-1.00;93.70;101134.11;1475694;89;21373;-76
2023/02/17 02:49:09;;;;;;;87.60;46.88;;;;;;;-1.03;93.41;101140.27;1466876;88;22448;-76
2023/02/17 02:51:52;;;;;;;93.30;50.08;;;;;;;-1.06;93.87;101138.23;1469471;89;21438;-77
2023/02/17 02:54:53;;;;;;;96.70;53.00;;;;;;;-1.08;93.57;101134.38;1466704;89;22408;-77
2023/02/17 02:57:31;;;;;;;86.85;47.20;;;;;;;-1.07;94.62;101136.06;1472527;89;21424;-77
2023/02/17 03:00:11;;;;;;;87.75;48.17;;;;;;;-1.08;94.64;101138.28;1466254;89;21468;-77
2023/02/17 03:02:44;;;;;;;86.22;47.75;;;;;;;-1.10;94.17;101136.18;1467572;89;21424;-77
2023/02/17 03:05:20;;;;;;;93.78;51.92;;;;;;;-1.10;93.98;101134.04;1475367;88;22429;-76
2023/02/17 03:07:53;;;;;;;95.53;50.83;;;;;;;-1.12;93.62;101128.91;1459838;89;21424;-76
2023/02/17 03:10:20;;;;;;;94.80;52.70;;;;;;;-1.15;93.50;101128.57;1465878;89;22444;-77
2023/02/17 03:12:47;;;;;;;97.95;51.85;;;;;;;-1.16;93.28;101129.91;1457648;89;21564;-76
2023/02/17 03:15:20;;;;;;;94.97;52.43;;;;;;;-1.18;93.35;101122.61;1462763;89;21460;-78
2023/02/17 03:17:46;;;;;;;95.60;53.38;;;;;;;-1.21;93.79;101118.83;1476232;88;21409;-76
2023/02/17 03:20:14;;;;;;;93.95;49.63;;;;;;;-1.21;93.85;101127.50;1463351;89;22347;-78
2023/02/17 03:22:44;;;;;;;93.15;51.65;;;;;;;-1.21;94.05;101124.03;1470603;89;22237;-77
2023/02/17 03:25:12;;;;;;;95.45;54.90;;;;;;;-1.18;94.05;101135.60;1443147;89;21527;-77
2023/02/17 03:27:38;;;;;;;130.87;68.72;;;;;;;-1.16;93.96;101148.09;1468634;89;22408;-77
2023/02/17 03:30:07;;;;;;;102.00;53.80;;;;;;;-1.13;94.09;101153.17;1465198;88;21432;-77
2023/02/17 03:32:33;;;;;;;112.88;58.35;;;;;;;-1.07;94.29;101147.75;1461939;89;22563;-78
2023/02/17 03:35:00;;;;;;;95.03;52.62;;;;;;;-1.03;93.98;101146.76;1464380;89;21356;-77
2023/02/17 03:37:26;;;;;;;107.17;59.80;;;;;;;-1.01;94.99;101139.73;1468049;89;21469;-78
2023/02/17 03:39:52;;;;;;;108.42;59.08;;;;;;;-0.99;94.12;101137.94;1473509;89;22289;-78
2023/02/17 03:42:22;;;;;;;98.62;54.30;;;;;;;-0.98;94.09;101136.17;1469559;89;22187;-78
2023/02/17 03:44:47;;;;;;;109.10;62.17;;;;;;;-0.99;93.59;101135.34;1463595;88;21393;-78
2023/02/17 03:47:13;;;;;;;101.87;56.75;;;;;;;-0.98;94.02;101141.38;1466991;89;22481;-78
2023/02/17 03:49:39;;;;;;;111.77;60.03;;;;;;;-1.03;94.13;101143.31;1474015;89;21417;-78
2023/02/17 03:52:05;;;;;;;108.92;62.03;;;;;;;-1.08;94.70;101153.02;1471809;89;21952;-78
2023/02/17 03:54:32;;;;;;;115.05;62.55;;;;;;;-1.15;94.70;101152.41;1472072;89;21343;-80
2023/02/17 03:56:59;;;;;;;109.85;62.78;;;;;;;-1.16;94.02;101153.29;1466330;88;21349;-78
2023/02/17 03:59:27;;;;;;;99.55;55.78;;;;;;;-1.19;93.91;101154.70;1478950;89;21526;-78
2023/02/17 04:01:54;;;;;;;104.72;53.68;;;;;;;-1.22;93.56;101149.62;1461204;89;21519;-78
2023/02/17 04:04:20;;;;;;;99.90;56.48;;;;;;;-1.29;93.87;101155.48;1464519;89;21461;-77
2023/02/17 04:06:47;;;;;;;100.10;52.62;;;;;;;-1.38;93.89;101155.36;1466226;89;21516;-77
2023/02/17 04:09:13;;;;;;;101.15;55.12;;;;;;;-1.45;93.93;101156.46;1467331;88;22274;-78
2023/02/17 04:11:40;;;;;;;101.30;56.33;;;;;;;-1.45;93.57;101153.02;1448171;89;21553;-78
2023/02/17 04:14:06;;;;;;;94.30;52.27;;;;;;;-1.45;93.44;101153.86;1471262;89;22378;-78
2023/02/17 04:16:33;;;;;;;94.75;54.93;;;;;;;-1.44;93.22;101159.48;1472710;88;22385;-79
2023/02/17 04:18:59;;;;;;;101.62;54.00;;;;;;;-1.46;93.15;101156.08;1470885;89;21395;-78
2023/02/17 04:21:25;;;;;;;97.97;53.45;;;;;;;-1.44;93.05;101162.08;1475022;89;21373;-78
2023/02/17 04:23:53;;;;;;;96.82;53.55;;;;;;;-1.48;93.18;101160.47;1464744;89;21365;-79
2023/02/17 04:26:20;;;;;;;94.75;54.38;;;;;;;-1.49;92.90;101158.78;1468221;88;21474;-79
2023/02/17 04:28:46;;;;;;;96.63;56.23;;;;;;;-1.51;92.97;101154.08;1470071;88;21379;-78
2023/02/17 04:31:12;;;;;;;93.10;51.25;;;;;;;-1.51;92.80;101154.54;1471901;88;21561;-77
2023/02/17 04:33:38;;;;;;;101.35;54.18;;;;;;;-1.54;93.31;101159.37;1460942;88;21929;-78
2023/02/17 04:36:05;;;;;;;92.95;51.90;;;;;;;-1.56;93.10;101157.28;1470288;88;21343;-78
2023/02/17 04:38:33;;;;;;;98.15;53.13;;;;;;;-1.54;93.09;101156.78;1470659;88;21387;-78
2023/02/17 04:41:00;;;;;;;92.12;51.50;;;;;;;-1.53;93.25;101153.28;1472179;88;21416;-78
2023/02/17 04:43:27;;;;;;;97.90;54.25;;;;;;;-1.52;93.52;101149.80;1447925;89;21298;-78
2023/02/17 04:45:54;;;;;;;99.07;52.60;;;;;;;-1.50;93.32;101149.27;1469068;89;21618;-78
2023/02/17 04:48:20;;;;;;;95.67;52.83;;;;;;;-1.48;93.47;101151.38;1463732;89;21322;-78
2023/02/17 04:50:47;;;;;;;94.28;52.10;;;;;;;-1.44;93.25;101146.91;1462705;89;21476;-76
2023/02/17 04:53:14;;;;;;;107.52;54.27;;;;;;;-1.40;93.26;101134.24;1469174;88;21556;-78
2023/02/17 04:55:41;;;;;;;115.90;59.58;;;;;;;-1.37;93.42;101136.27;1469704;88;21453;-78
2023/02/17 04:58:09;;;;;;;114.35;59.10;;;;;;;-1.30;93.66;101137.34;1468340;88;21594;-78
2023/02/17 05:00:36;;;;;;;104.80;57.27;;;;;;;-1.25;93.86;101142.78;1469752;89;21387;-79
2023/02/17 05:03:02;;;;;;;163.10;86.45;;;;;;;-1.19;94.10;101145.61;1469051;88;21579;-78
2023/02/17 05:05:29;;;;;;;159.87;82.02;;;;;;;-1.18;94.69;101149.89;1472265;88;21372;-78
2023/02/17 05:07:56;;;;;;;124.90;66.28;;;;;;;-1.15;95.06;101156.30;1474330;89;21549;-79
2023/02/17 05:10:22;;;;;;;111.90;61.77;;;;;;;-1.09;94.48;101164.30;1470948;88;21446;-79
2023/02/17 05:12:48;;;;;;;110.08;57.75;;;;;;;-1.04;94.72;101174.08;1466446;88;21476;-78
2023/02/17 05:15:15;;;;;;;110.52;58.92;;;;;;;-1.01;96.04;101177.41;1461979;89;21501;-79
2023/02/17 05:17:41;;;;;;;96.32;54.67;;;;;;;-1.00;96.64;101179.13;1470617;89;21379;-78
2023/02/17 05:20:09;;;;;;;105.00;58.40;;;;;;;-0.96;95.89;101179.39;1473625;88;21534;-78
2023/02/17 05:22:35;;;;;;;98.35;57.88;;;;;;;-0.93;95.56;101179.73;1473638;89;21888;-79
2023/02/17 05:25:02;;;;;;;105.30;58.00;;;;;;;-0.89;96.05;101181.77;1462888;88;21535;-78
2023/02/17 05:27:28;;;;;;;110.80;60.58;;;;;;;-0.87;96.94;101181.27;1470848;88;21401;-79
2023/02/17 05:29:55;;;;;;;102.38;59.05;;;;;;;-0.83;96.87;101175.07;1469825;88;22345;-79
2023/02/17 05:32:22;;;;;;;113.75;64.30;;;;;;;-0.84;98.35;101172.90;1467437;88;21416;-78
2023/02/17 05:34:49;;;;;;;107.80;56.80;;;;;;;-0.80;97.48;101169.76;1471676;89;21498;-78
2023/02/17 05:37:15;;;;;;;112.20;60.78;;;;;;;-0.76;97.23;101170.03;1471444;88;22261;-78
2023/02/17 05:39:42;;;;;;;115.88;61.25;;;;;;;-0.68;98.07;101171.89;1468205;89;21335;-78
2023/02/17 05:42:08;;;;;;;122.85;63.63;;;;;;;-0.63;97.33;101174.30;1461517;89;21494;-78
2023/02/17 05:44:34;;;;;;;132.10;67.40;;;;;;;-0.62;99.12;101174.26;1469675;89;21394;-78
2023/02/17 05:47:00;;;;;;;132.72;67.75;;;;;;;-0.62;99.74;101175.56;1467581;88;21566;-78
2023/02/17 05:49:26;;;;;;;141.03;73.90;;;;;;;-0.62;100.00;101179.45;1473359;88;21351;-77
2023/02/17 05:51:53;;;;;;;125.42;66.67;;;;;;;-0.63;100.00;101175.59;1470867;89;21467;-75
2023/02/17 05:54:19;;;;;;;124.62;62.62;;;;;;;-0.63;100.00;101176.91;1471565;89;21357;-78
2023/02/17 05:56:46;;;;;;;123.45;64.12;;;;;;;-0.65;100.00;101178.28;1467506;88;21492;-77
2023/02/17 05:59:12;;;;;;;126.20;67.05;;;;;;;-0.66;100.00;101181.79;1473857;89;21423;-78
2023/02/17 06:01:38;;;;;;;132.25;70.80;;;;;;;-0.68;100.00;101190.09;1441143;89;21416;-78
2023/02/17 06:04:05;;;;;;;135.90;71.62;;;;;;;-0.66;100.00;101196.09;1463293;88;22444;-78
2023/02/17 06:06:31;;;;;;;129.12;70.35;;;;;;;-0.62;100.00;101215.86;1463310;88;21623;-78
2023/02/17 06:08:57;;;;;;;129.38;69.05;;;;;;;-0.59;100.00;101222.24;1459919;89;22245;-78
2023/02/17 06:11:24;;;;;;;139.72;69.75;;;;;;;-0.56;100.00;101217.38;1467639;89;22469;-79
2023/02/17 06:13:51;;;;;;;131.45;69.15;;;;;;;-0.51;100.00;101218.06;1473974;88;21321;-78
2023/02/17 06:16:17;;;;;;;144.90;73.17;;;;;;;-0.48;100.00;101223.99;1465226;89;21534;-77
2023/02/17 06:18:43;;;;;;;138.65;72.53;;;;;;;-0.44;100.00;101232.98;1461525;88;21365;-77
2023/02/17 06:21:10;;;;;;;122.90;66.33;;;;;;;-0.38;100.00;101228.84;1466040;88;21394;-77
2023/02/17 06:23:36;;;;;;;128.60;65.17;;;;;;;-0.32;100.00;101222.09;1469461;88;22434;-78
2023/02/17 06:26:03;;;;;;;145.15;76.37;;;;;;;-0.28;100.00;101221.09;1463452;89;22176;-78
2023/02/17 06:28:29;;;;;;;129.82;67.97;;;;;;;-0.26;99.84;101213.63;1469358;88;21379;-78
2023/02/17 06:30:55;;;;;;;139.90;73.37;;;;;;;-0.24;99.88;101210.95;1467263;89;21541;-77
2023/02/17 06:33:21;;;;;;;130.55;69.77;;;;;;;-0.25;100.00;101211.88;1474446;89;21423;-77
2023/02/17 06:35:50;;;;;;;127.33;69.63;;;;;;;-0.27;100.00;101213.21;1468317;88;22394;-78
2023/02/17 06:38:17;;;;;;;127.97;66.67;;;;;;;-0.27;100.00;101214.52;1468833;88;22232;-77
2023/02/17 06:40:44;;;;;;;137.25;74.17;;;;;;;-0.33;100.00;101223.02;1446337;89;22212;-83
2023/02/17 06:43:10;;;;;;;145.07;77.90;;;;;;;-0.33;100.00;101228.22;1463690;89;21451;-84
2023/02/17 06:45:36;;;;;;;128.38;70.90;;;;;;;-0.34;100.00;101223.94;1464538;88;21372;-81
2023/02/17 06:48:03;;;;;;;125.30;69.43;;;;;;;-0.38;100.00;101218.44;1468088;89;21534;-82
2023/02/17 06:50:29;;;;;;;125.75;66.57;;;;;;;-0.37;100.00;101216.25;1465096;89;21581;-82
2023/02/17 06:52:55;;;;;;;129.43;69.27;;;;;;;-0.35;100.00;101219.62;1473310;89;21579;-83
2023/02/17 06:55:21;;;;;;;132.63;69.27;;;;;;;-0.32;100.00;101222.09;1455435;89;23044;-82
2023/02/17 06:57:47;;;;;;;119.00;66.80;;;;;;;-0.28;100.00;101213.29;1475142;89;22460;-82
2023/02/17 07:00:14;;;;;;;131.87;71.00;;;;;;;-0.31;100.00;101217.31;1472419;88;21580;-82
2023/02/17 07:02:40;;;;;;;130.45;72.37;;;;;;;-0.29;100.00;101225.45;1466446;89;21633;-82
2023/02/17 07:05:07;;;;;;;125.22;68.83;;;;;;;-0.23;100.00;101232.18;1468804;88;21365;-83
2023/02/17 07:07:33;;;;;;;122.30;67.15;;;;;;;-0.19;100.00;101225.94;1437441;89;21892;-82
2023/02/17 07:10:00;;;;;;;134.53;71.90;;;;;;;-0.14;100.00;101229.22;1467527;89;21438;-82
2023/02/17 07:12:27;;;;;;;132.37;70.07;;;;;;;-0.19;100.00;101231.14;1468788;88;21916;-83
2023/02/17 07:14:54;;;;;;;139.12;74.30;;;;;;;-0.17;100.00;101224.56;1476286;89;22987;-83
2023/02/17 07:17:20;;;;;;;132.70;71.87;;;;;;;-0.16;100.00;101219.31;1446739;89;22047;-83
2023/02/17 07:19:46;;;;;;;142.97;75.00;;;;;;;-0.12;100.00;101222.17;1464514;89;21595;-84
2023/02/17 07:22:12;;;;;;;127.20;69.70;;;;;;;-0.11;100.00;101200.47;1465968;89;22231;-82
2023/02/17 07:24:38;;;;;;;126.23;68.50;;;;;;;-0.03;100.00;101194.52;1471282;89;21550;-85
2023/02/17 07:27:05;;;;;;;132.10;68.10;;;;;;;0.08;100.00;101193.22;1469466;88;21920;-82
2023/02/17 07:29:31;;;;;;;137.30;71.57;;;;;;;0.16;100.00;101198.97;1468797;89;21575;-82
2023/02/17 07:31:58;;;;;;;141.87;75.17;;;;;;;0.23;100.00;101209.51;1473086;88;21612;-83
2023/02/17 07:34:24;;;;;;;129.77;69.67;;;;;;;0.29;100.00;101203.20;1464275;89;22645;-82
2023/02/17 07:36:50;;;;;;;138.03;72.23;;;;;;;0.29;100.00;101200.17;1464074;88;21619;-83
2023/02/17 07:39:16;;;;;;;128.33;66.30;;;;;;;0.35;100.00;101197.77;1442429;89;21483;-82
2023/02/17 07:41:42;;;;;;;132.93;70.37;;;;;;;0.35;99.94;101199.92;1464426;88;21614;-82
2023/02/17 07:44:09;;;;;;;148.87;73.97;;;;;;;0.39;99.81;101200.17;1468366;89;21924;-82
2023/02/17 07:46:36;;;;;;;135.83;74.23;;;;;;;0.42;99.60;101197.89;1471003;88;21643;-81
2023/02/17 07:49:02;;;;;;;147.90;79.20;;;;;;;0.37;100.00;101190.27;1465388;89;21883;-82
2023/02/17 07:51:29;;;;;;;134.73;72.90;;;;;;;0.36;100.00;101198.16;1467737;88;21643;-82
2023/02/17 07:53:55;;;;;;;125.77;69.00;;;;;;;0.35;100.00;101197.31;1466684;89;21575;-83
2023/02/17 07:56:22;;;;;;;143.47;76.53;;;;;;;0.40;100.00;101201.88;1464560;89;21542;-81
2023/02/17 07:58:49;;;;;;;125.13;69.50;;;;;;;0.43;100.00;101197.84;1470236;88;21789;-83
2023/02/17 08:01:19;;;;;;;132.63;73.20;;;;;;;0.50;100.00;101194.98;1467537;89;21612;-83
2023/02/17 08:03:47;;;;;;;125.47;67.03;;;;;;;0.55;100.00;101191.73;1465409;89;22416;-83
2023/02/17 08:06:18;;;;;;;123.47;64.80;;;;;;;0.65;100.00;101198.23;1471443;88;21527;-83
2023/02/17 08:14:17;;;;;;;124.27;71.47;;;;;;;1.01;99.50;101197.56;1461560;88;21701;-83
2023/02/17 08:16:43;;;;;;;127.97;72.13;;;;;;;1.14;99.20;101183.05;1475884;89;21616;-83
2023/02/17 08:19:09;;;;;;;119.50;67.23;;;;;;;1.27;98.63;101175.08;1468271;88;21550;-82
2023/02/17 08:21:35;;;;;;;118.03;70.47;;;;;;;1.38;98.43;101178.47;1466390;88;22718;-83
2023/02/17 08:24:02;;;;;;;120.63;72.40;;;;;;;1.47;97.42;101181.15;1470032;89;21591;-83
2023/02/17 08:26:28;;;;;;;115.83;68.57;;;;;;;1.49;96.61;101172.30;1468512;89;21750;-83
2023/02/17 08:28:55;;;;;;;110.70;65.37;;;;;;;1.55;96.39;101176.39;1472666;89;22584;-83
2023/02/17 08:31:31;;;;;;;114.13;68.17;;;;;;;1.65;96.49;101181.59;1468314;89;21616;-82
2023/02/17 08:34:02;;;;;;;114.17;67.17;;;;;;;1.81;96.48;101177.78;1466430;89;22492;-83
2023/02/17 08:36:28;;;;;;;113.10;64.53;;;;;;;1.89;95.79;101176.11;1444618;89;22624;-82
2023/02/17 08:38:55;;;;;;;108.50;66.30;;;;;;;2.00;95.43;101188.19;1468070;89;21659;-82
2023/02/17 08:41:31;;;;;;;109.23;63.20;;;;;;;2.07;94.79;101190.04;1472197;88;22551;-83
2023/02/17 08:44:01;;;;;;;114.17;65.57;;;;;;;2.07;93.45;101193.48;1467004;89;21912;-82
2023/02/17 08:46:27;;;;;;;106.17;64.50;;;;;;;2.09;94.07;101195.58;1460635;89;21610;-83
2023/02/17 08:48:55;;;;;;;107.03;64.20;;;;;;;2.12;93.58;101199.81;1468304;89;21774;-83
2023/02/17 08:51:25;;;;;;;105.53;64.50;;;;;;;2.22;93.70;101201.91;1463892;89;21627;-84
2023/02/17 08:53:55;;;;;;;109.17;66.17;;;;;;;2.32;93.50;101216.66;1459115;89;21821;-84
2023/02/17 08:56:23;;;;;;;113.85;68.37;;;;;;;2.41;93.58;101221.42;1463479;88;21656;-83
2023/02/17 08:58:50;;;;;;;167.67;100.80;;;;;;;2.55;92.52;101218.12;1467664;89;21527;-83
2023/02/17 09:01:19;;;;;;;125.13;74.77;;;;;;;2.55;92.52;101218.12;1472044;89;21777;-81
2023/02/17 09:03:48;;;;;;;127.57;77.63;;;;;;;2.57;91.78;101218.91;1467323;88;22042;-83
2023/02/17 09:06:16;;;;;;;115.23;70.23;;;;;;;2.54;91.66;101229.52;1463286;89;22514;-82
2023/02/17 09:08:45;;;;;;;109.17;63.90;;;;;;;2.53;91.34;101227.80;1471421;89;21886;-83
2023/02/17 09:11:14;;;;;;;109.30;66.40;;;;;;;2.49;90.85;101223.66;1469576;89;21758;-83
2023/02/17 09:13:39;;;;;;;108.07;65.80;;;;;;;2.49;90.85;101223.66;1461517;89;22017;-82
2023/02/17 09:16:07;;;;;;;115.83;73.33;;;;;;;2.53;90.98;101235.64;1470530;89;21773;-83
2023/02/17 09:18:33;;;;;;;140.13;85.30;;;;;;;2.60;90.90;101235.73;1457744;89;21839;-83
2023/02/17 09:21:10;;;;;;;114.83;69.03;;;;;;;2.70;91.20;101225.22;1474818;89;22629;-82
2023/02/17 09:23:37;;;;;;;124.53;75.63;;;;;;;2.81;90.89;101228.57;1438047;89;21780;-82
2023/02/17 09:26:07;;;;;;;126.20;73.87;;;;;;;2.90;89.81;101231.17;1471291;89;21948;-83
2023/02/17 09:28:34;;;;;;;126.20;73.07;;;;;;;2.90;89.81;101231.17;1461772;89;21791;-83
2023/02/17 09:31:19;;;;;;;130.90;78.90;;;;;;;2.92;89.49;101226.72;1469104;89;21409;-83
2023/02/17 09:33:47;;;;;;;132.23;78.20;;;;;;;2.99;89.51;101220.23;1463971;88;21839;-82
2023/02/17 09:36:17;;;;;;;123.70;74.40;;;;;;;3.00;88.70;101218.02;1470319;88;21988;-82
2023/02/17 09:38:43;;;;;;;120.87;69.23;;;;;;;3.08;89.06;101221.53;1473465;89;21820;-82
2023/02/17 09:41:27;;;;;;;113.00;68.90;;;;;;;3.29;88.41;101205.19;1474002;89;22069;-83
2023/02/17 09:43:54;;;;;;;107.93;67.00;;;;;;;3.29;88.41;101205.19;1469871;89;22135;-83
2023/02/17 09:46:29;;;;;;;113.80;67.53;;;;;;;3.38;87.84;101191.13;1466868;88;22099;-82
2023/02/17 09:49:01;;;;;;;109.87;64.93;;;;;;;3.46;87.26;101190.73;1469287;88;22323;-82
2023/02/17 09:51:34;;;;;;;114.00;72.13;;;;;;;3.50;86.55;101189.63;1466723;89;22115;-83
2023/02/17 09:54:06;;;;;;;123.97;75.90;;;;;;;3.54;86.31;101188.54;1467754;88;22940;-83
2023/02/17 09:56:37;;;;;;;116.93;69.20;;;;;;;3.47;84.98;101194.19;1472722;89;22098;-83
2023/02/17 09:59:15;;;;;;;112.50;68.60;;;;;;;3.32;84.47;101210.25;1473793;89;22141;-83
2023/02/17 10:01:43;;;;;;;102.17;64.00;;;;;;;3.34;85.46;101212.33;1456685;89;22301;-82
2023/02/17 10:04:20;;;;;;;111.53;64.80;;;;;;;3.46;86.29;101206.90;1466013;88;23056;-82
2023/02/17 10:07:01;;;;;;;110.30;68.10;;;;;;;3.55;85.49;101207.23;1469295;88;22146;-81
2023/02/17 10:09:44;;;;;;;124.33;70.80;;;;;;;3.65;85.79;101198.41;1472796;89;22321;-81
2023/02/17 10:12:15;;;;;;;100.87;59.10;;;;;;;3.72;84.52;101201.08;1469591;89;21475;-83
2023/02/17 10:14:54;;;;;;;110.07;66.33;;;;;;;3.64;83.88;101201.12;1470185;88;22212;-81
2023/02/17 10:17:46;;;;;;;106.75;67.00;;;;;;;3.75;84.20;101191.74;1464962;89;22116;-83
2023/02/17 10:20:21;;;;;;;96.53;58.48;;;;;;;3.79;84.54;101195.03;1472255;89;21401;-84
2023/02/17 10:22:52;;;;;;;96.33;57.60;;;;;;;3.81;83.51;101191.87;1462961;89;21438;-82
2023/02/17 10:25:22;;;;;;;;;;;;;;;3.87;83.23;101179.73;1478496;89;22115;-84
2023/02/17 10:27:56;;;;;;;117.30;66.60;;;;;;;4.00;84.21;101161.10;1463564;89;20340;-84
2023/02/17 10:30:52;;;;;;;107.13;62.37;;;;;;;4.14;82.84;101166.00;1466824;88;22156;-84
2023/02/17 10:33:36;;;;;;;96.97;58.30;;;;;;;4.23;81.96;101169.39;1467086;89;22195;-85
2023/02/17 10:36:25;;;;;;;95.57;58.00;;;;;;;4.30;80.40;101157.63;1468917;89;21535;-84
2023/02/17 10:39:00;;;;;;;110.10;66.83;;;;;;;4.40;79.46;101160.11;1461221;89;21587;-83
2023/02/17 10:41:30;;;;;;;105.73;68.73;;;;;;;4.64;81.46;101160.42;1468274;89;21336;-82
2023/02/17 10:43:58;;;;;;;105.37;65.75;;;;;;;4.75;79.66;101159.79;1470106;88;21364;-81
2023/02/17 10:46:28;;;;;;;115.53;70.43;;;;;;;4.83;79.60;101156.69;1442139;89;21371;-79
2023/02/17 10:48:57;;;;;;;99.07;57.98;;;;;;;4.92;79.33;101160.92;1464728;89;22142;-80
2023/02/17 10:51:30;;;;;;;91.50;59.07;;;;;;;4.98;78.92;101159.23;1460426;89;21553;-77
2023/02/17 10:54:09;;;;;;;95.70;58.63;;;;;;;5.04;78.61;101150.62;1461030;89;21358;-76
2023/02/17 10:56:43;;;;;;;92.70;56.80;;;;;;;4.98;75.49;101146.12;1470657;89;21468;-85
2023/02/17 10:59:35;;;;;;;103.90;62.97;;;;;;;4.92;75.73;101156.13;1464517;88;21493;-83
2023/02/17 11:02:36;;;;;;;105.33;61.77;;;;;;;4.79;75.26;101153.41;1441768;89;21505;-85
2023/02/17 11:05:05;;;;;;;108.63;63.90;;;;;;;4.79;76.59;101157.34;1455815;89;22136;-84
2023/02/17 11:07:38;;;;;;;106.53;62.90;;;;;;;4.79;76.63;101149.48;1469106;89;21378;-83
2023/02/17 11:10:31;;;;;;;103.67;60.27;;;;;;;4.71;76.70;101149.09;1471689;89;22513;-84
2023/02/17 11:12:59;;;;;;;100.20;60.03;;;;;;;4.74;76.97;101135.80;1463644;89;21572;-83
2023/02/17 11:15:45;;;;;;;95.57;58.13;;;;;;;4.71;77.09;101134.67;1462512;88;21357;-84
2023/02/17 11:18:22;;;;;;;104.73;62.43;;;;;;;4.75;77.34;101129.16;1454202;89;23084;-84
2023/02/17 11:20:48;;;;;;;108.20;66.17;;;;;;;4.81;77.49;101125.32;1459475;89;21564;-82
2023/02/17 11:23:26;;;;;;;107.87;66.17;;;;;;;4.89;77.43;101115.21;1443790;89;22502;-83
2023/02/17 11:26:09;;;;;;;105.73;62.90;;;;;;;5.02;77.82;101102.64;1423106;89;21572;-83